Terminal Aerodrome Forecast
Issued by NWS Wichita, KS

Home | Current Version | Previous Version | Graphics & Text | Print | Product List | Glossary On
Versions: 1 2 3 4 5 6 7 8 9 10 11 12 13 14 15 16 17 18 19 20 21
000
FTUS43 KICT 200520
TAFICT
TAF
KICT 200520Z 2006/2106 30008KT P6SM SCT090
     FM201600 31016G23KT P6SM BKN120
     FM210000 24008KT P6SM FEW080=

USA.gov is the U.S. government's official web portal to all federal, state and local government web resources and services.